createdAt,value
2022-08-16T00:01:24.732Z,10.95
2022-08-16T00:03:55.324Z,12.07
2022-08-16T00:06:24.486Z,12.33
2022-08-16T00:08:52.694Z,12.43
2022-08-16T00:11:22.064Z,13.20
2022-08-16T00:13:54.174Z,13.40
2022-08-16T00:17:00.501Z,13.45
2022-08-16T00:19:14.783Z,12.50
2022-08-16T00:21:43.766Z,14.60
2022-08-16T00:24:32.360Z,13.35
2022-08-16T00:27:01.731Z,14.70
2022-08-16T00:29:30.219Z,14.10
2022-08-16T00:32:06.064Z,14.90
2022-08-16T00:34:43.391Z,15.27
2022-08-16T00:37:24.578Z,13.52
2022-08-16T00:39:57.549Z,14.02
2022-08-16T00:42:30.156Z,14.10
2022-08-16T00:45:06.336Z,13.82
2022-08-16T00:47:42.608Z,14.07
2022-08-16T00:50:17.550Z,14.68
2022-08-16T00:52:50.231Z,13.65
2022-08-16T00:55:18.986Z,14.57
2022-08-16T00:57:59.506Z,13.13
2022-08-16T01:00:31.725Z,13.40
2022-08-16T01:03:12.654Z,15.17
2022-08-16T01:05:41.176Z,13.57
2022-08-16T01:08:35.824Z,13.50
2022-08-16T01:11:00.092Z,13.65
2022-08-16T01:13:33.811Z,13.55
2022-08-16T01:16:10.262Z,14.25
2022-08-16T01:18:45.133Z,15.68
2022-08-16T01:21:24.128Z,14.75
2022-08-16T01:24:52.574Z,15.02
2022-08-16T01:27:15.016Z,14.32
2022-08-16T01:29:57.671Z,15.07
2022-08-16T01:32:33.262Z,15.27
2022-08-16T01:35:03.224Z,15.65
2022-08-16T01:37:39.949Z,15.00
2022-08-16T01:40:15.448Z,16.70
2022-08-16T01:42:44.922Z,16.33
2022-08-16T01:45:19.616Z,17.40
2022-08-16T01:47:51.905Z,15.40
2022-08-16T01:50:42.184Z,15.93
2022-08-16T01:53:11.154Z,16.75
2022-08-16T01:55:42.826Z,16.60
2022-08-16T01:58:23.849Z,16.23
2022-08-16T02:00:51.857Z,17.00
2022-08-16T02:03:24.231Z,16.85
2022-08-16T02:05:52.605Z,16.00
2022-08-16T02:08:32.591Z,16.20
2022-08-16T02:11:04.765Z,15.82
2022-08-16T02:13:33.024Z,16.48
2022-08-16T02:16:01.270Z,17.08
2022-08-16T02:18:29.843Z,16.58
2022-08-16T02:20:58.060Z,17.30
2022-08-16T02:23:29.595Z,18.30
2022-08-16T02:25:59.394Z,18.92
2022-08-16T02:28:30.106Z,16.30
2022-08-16T02:31:00.464Z,17.50
2022-08-16T02:33:43.732Z,17.73
2022-08-16T02:36:42.412Z,17.98
2022-08-16T02:39:02.348Z,17.17
2022-08-16T02:41:31.229Z,16.95
2022-08-16T02:44:03.652Z,18.33
2022-08-16T02:46:33.687Z,17.88
2022-08-16T02:49:02.266Z,20.00
2022-08-16T02:51:30.165Z,18.05
2022-08-16T02:53:59.718Z,18.30
2022-08-16T02:56:32.278Z,18.55
2022-08-16T02:59:00.830Z,17.70
2022-08-16T03:01:37.122Z,16.20
2022-08-16T03:04:40.685Z,16.90
2022-08-16T03:06:56.682Z,16.98
2022-08-16T03:09:25.414Z,16.77
2022-08-16T03:11:57.127Z,16.75
2022-08-16T03:14:26.093Z,17.85
2022-08-16T03:16:59.134Z,19.15
2022-08-16T03:19:47.038Z,17.75
2022-08-16T03:22:19.306Z,17.60
2022-08-16T03:24:58.814Z,19.13
2022-08-16T03:27:31.353Z,19.27
2022-08-16T03:30:02.450Z,18.95
2022-08-16T03:32:47.237Z,18.45
2022-08-16T03:35:17.862Z,18.42
2022-08-16T03:38:01.377Z,18.55
2022-08-16T03:40:33.524Z,21.88
2022-08-16T03:43:20.742Z,20.65
2022-08-16T03:45:52.326Z,22.27
2022-08-16T03:48:37.229Z,23.38
2022-08-16T03:51:12.227Z,21.77
2022-08-16T03:53:41.303Z,22.17
2022-08-16T03:56:20.084Z,24.30
2022-08-16T03:58:50.636Z,22.52
2022-08-16T04:01:19.520Z,21.92
2022-08-16T04:03:49.899Z,21.25
2022-08-16T04:06:17.990Z,21.67
2022-08-16T04:08:45.991Z,24.23
2022-08-16T04:11:16.594Z,21.42
2022-08-16T04:13:59.003Z,20.65
2022-08-16T04:16:32.267Z,21.50
2022-08-16T04:19:04.552Z,21.85
2022-08-16T04:21:33.350Z,20.35
2022-08-16T04:24:02.839Z,20.90
2022-08-16T04:26:32.326Z,21.10
2022-08-16T04:29:17.034Z,22.30
2022-08-16T04:31:56.797Z,22.00
2022-08-16T04:34:30.027Z,24.48
2022-08-16T04:36:59.019Z,22.70
2022-08-16T04:39:46.281Z,23.17
2022-08-16T04:42:16.318Z,24.23
2022-08-16T04:44:53.613Z,23.63
2022-08-16T04:47:24.467Z,23.95
2022-08-16T04:49:54.198Z,21.15
2022-08-16T04:52:33.671Z,23.10
2022-08-16T04:55:07.883Z,24.23
2022-08-16T04:57:37.032Z,23.98
2022-08-16T05:00:31.952Z,25.67
2022-08-16T05:03:03.023Z,25.60
2022-08-16T05:05:44.894Z,24.33
2022-08-16T05:08:28.985Z,25.30
2022-08-16T05:11:00.593Z,25.02
2022-08-16T05:13:40.474Z,24.42
2022-08-16T05:16:11.917Z,27.08
2022-08-16T05:18:44.848Z,26.10
2022-08-16T05:21:14.439Z,26.67
2022-08-16T05:23:45.461Z,27.05
2022-08-16T05:26:20.520Z,25.70
2022-08-16T05:28:55.494Z,26.05
2022-08-16T05:31:24.226Z,22.90
2022-08-16T05:33:58.720Z,24.98
2022-08-16T05:36:34.279Z,23.05
2022-08-16T05:39:07.811Z,21.92
2022-08-16T05:41:45.373Z,25.30
2022-08-16T05:44:24.241Z,24.30
2022-08-16T05:46:56.033Z,26.25
2022-08-16T05:49:24.738Z,23.58
2022-08-16T05:51:55.559Z,23.90
2022-08-16T05:54:26.094Z,23.95
2022-08-16T05:56:54.614Z,21.63
2022-08-16T05:59:24.380Z,25.05
2022-08-16T06:01:55.557Z,22.95
2022-08-16T06:04:35.962Z,23.20
2022-08-16T06:07:09.124Z,22.00
2022-08-16T06:09:53.142Z,23.10
2022-08-16T06:12:27.490Z,22.88
2022-08-16T06:14:59.842Z,22.83
2022-08-16T06:17:42.857Z,23.35
2022-08-16T06:20:18.048Z,23.52
2022-08-16T06:22:57.621Z,26.10
2022-08-16T06:25:36.666Z,23.50
2022-08-16T06:28:10.147Z,23.10
2022-08-16T06:30:45.200Z,23.17
2022-08-16T06:33:22.170Z,22.92
2022-08-16T06:35:55.009Z,24.90
2022-08-16T06:38:32.794Z,22.83
2022-08-16T06:41:04.017Z,23.80
2022-08-16T06:43:32.137Z,22.40
2022-08-16T06:46:00.585Z,23.77
2022-08-16T06:48:33.184Z,24.25
2022-08-16T06:51:02.547Z,24.08
2022-08-16T06:53:33.693Z,27.27
2022-08-16T06:56:06.009Z,28.02
2022-08-16T06:58:41.862Z,25.10
2022-08-16T07:01:14.982Z,26.17
2022-08-16T07:03:55.901Z,24.90
2022-08-16T07:06:27.080Z,24.40
2022-08-16T07:08:56.981Z,25.73
2022-08-16T07:11:47.359Z,26.35
2022-08-16T07:14:24.121Z,24.13
2022-08-16T07:16:58.287Z,24.73
2022-08-16T07:20:03.990Z,24.65
2022-08-16T07:22:37.495Z,23.13
2022-08-16T07:25:06.686Z,22.40
2022-08-16T07:27:37.472Z,22.48
2022-08-16T07:30:46.003Z,21.25
2022-08-16T07:32:57.176Z,27.48
2022-08-16T07:35:25.185Z,28.50
2022-08-16T07:37:53.309Z,31.27
2022-08-16T07:40:42.801Z,32.47
2022-08-16T07:43:11.274Z,33.78
2022-08-16T07:45:39.617Z,33.30
2022-08-16T07:48:12.515Z,32.70
2022-08-16T07:50:55.740Z,31.50
2022-08-16T07:53:28.940Z,31.80
2022-08-16T07:56:00.169Z,33.13
2022-08-16T07:58:35.184Z,32.70
2022-08-16T08:01:10.958Z,33.05
2022-08-16T08:03:48.448Z,32.63
2022-08-16T08:06:18.378Z,33.63
2022-08-16T08:08:49.192Z,33.55
2022-08-16T08:11:23.741Z,31.08
2022-08-16T08:13:53.888Z,33.10
2022-08-16T08:16:30.931Z,31.88
2022-08-16T08:19:02.677Z,31.60
2022-08-16T08:22:00.754Z,33.40
2022-08-16T08:24:21.220Z,35.28
2022-08-16T08:26:50.809Z,33.22
2022-08-16T08:29:23.038Z,32.05
2022-08-16T08:31:53.923Z,32.37
2022-08-16T08:34:22.993Z,34.35
2022-08-16T08:36:54.477Z,34.45
2022-08-16T08:39:23.469Z,34.28
2022-08-16T08:41:53.348Z,35.08
2022-08-16T08:44:29.273Z,34.05
2022-08-16T08:47:01.574Z,34.17
2022-08-16T08:49:46.639Z,34.45
2022-08-16T08:52:35.023Z,32.78
2022-08-16T08:55:10.527Z,31.83
2022-08-16T08:57:41.293Z,31.40
2022-08-16T09:00:13.332Z,32.72
2022-08-16T09:02:42.967Z,33.27
2022-08-16T09:05:15.763Z,31.60
2022-08-16T09:08:00.467Z,29.85
2022-08-16T09:10:29.895Z,32.40
2022-08-16T09:12:59.329Z,31.58
2022-08-16T09:15:33.266Z,32.08
2022-08-16T09:18:02.148Z,32.17
2022-08-16T09:20:58.531Z,29.58
2022-08-16T09:23:29.462Z,32.20
2022-08-16T09:25:57.505Z,29.70
2022-08-16T09:29:14.043Z,29.97
2022-08-16T09:31:17.093Z,29.67
2022-08-16T09:33:46.028Z,28.38
2022-08-16T09:36:31.585Z,28.92
2022-08-16T09:39:02.210Z,28.13
2022-08-16T09:41:31.691Z,29.02
2022-08-16T09:45:09.449Z,29.33
2022-08-16T09:46:53.816Z,29.20
2022-08-16T09:49:26.213Z,28.85
2022-08-16T09:52:05.639Z,26.00
2022-08-16T09:54:34.257Z,27.10
2022-08-16T09:57:03.311Z,25.27
2022-08-16T09:59:38.695Z,27.67
2022-08-16T10:02:26.290Z,28.20
2022-08-16T10:04:55.877Z,29.95
2022-08-16T10:07:24.578Z,28.55
2022-08-16T10:09:55.260Z,29.03
2022-08-16T10:12:43.665Z,30.40
2022-08-16T10:15:15.509Z,29.60
2022-08-16T10:18:00.990Z,29.40
2022-08-16T10:20:31.699Z,29.25
2022-08-16T10:23:06.062Z,27.77
2022-08-16T10:27:16.553Z,27.27
2022-08-16T10:28:28.627Z,26.90
2022-08-16T10:30:59.784Z,29.77
2022-08-16T10:33:29.423Z,26.60
2022-08-16T10:36:03.001Z,25.60
2022-08-16T10:38:33.048Z,22.55
2022-08-16T10:41:05.103Z,24.90
2022-08-16T10:43:34.959Z,25.35
2022-08-16T10:46:39.995Z,22.70
2022-08-16T10:48:53.986Z,21.87
2022-08-16T10:51:33.737Z,21.80
2022-08-16T10:54:28.456Z,19.52
2022-08-16T10:56:58.128Z,19.95
2022-08-16T10:59:39.188Z,20.90
2022-08-16T11:02:57.530Z,22.20
2022-08-16T11:05:08.926Z,21.73
2022-08-16T11:07:51.447Z,23.17
2022-08-16T11:16:25.360Z,23.05
2022-08-16T11:19:05.731Z,20.10
2022-08-16T11:22:38.988Z,21.08
2022-08-16T11:24:42.570Z,20.20
2022-08-16T11:27:23.593Z,21.13
2022-08-16T11:29:55.581Z,20.55
2022-08-16T11:32:32.340Z,22.95
2022-08-16T11:35:13.695Z,21.60
2022-08-16T11:40:38.679Z,20.48
2022-08-16T11:43:09.970Z,21.65
2022-08-16T11:45:38.571Z,21.30
2022-08-16T11:48:07.576Z,22.50
2022-08-16T11:50:37.257Z,20.17
2022-08-16T11:53:08.193Z,18.10
2022-08-16T11:55:38.408Z,18.70
2022-08-16T11:58:07.833Z,18.70
2022-08-16T12:00:50.576Z,21.15
2022-08-16T12:03:25.027Z,21.45
2022-08-16T12:06:11.197Z,19.05
2022-08-16T12:08:53.546Z,17.92
2022-08-16T12:11:23.535Z,18.07
2022-08-16T12:13:55.065Z,19.38
2022-08-16T12:16:23.009Z,19.65
2022-08-16T12:18:59.128Z,16.80
2022-08-16T12:21:35.876Z,17.33
2022-08-16T12:24:16.347Z,16.75
2022-08-16T12:26:44.754Z,17.83
2022-08-16T12:29:12.978Z,17.90
2022-08-16T12:31:59.301Z,19.60
2022-08-16T12:34:29.518Z,17.85
2022-08-16T12:37:02.426Z,18.73
2022-08-16T12:39:31.440Z,19.25
2022-08-16T12:42:00.274Z,17.40
2022-08-16T12:44:31.289Z,17.33
2022-08-16T12:47:16.999Z,17.47
2022-08-16T12:49:45.425Z,16.17
2022-08-16T12:52:32.741Z,18.10
2022-08-16T12:55:01.923Z,16.08
2022-08-16T12:57:36.716Z,16.50
2022-08-16T13:00:07.916Z,16.17
2022-08-16T13:02:36.598Z,13.40
2022-08-16T13:05:06.950Z,11.82
2022-08-16T13:07:45.031Z,9.50
2022-08-16T13:10:37.835Z,9.57
2022-08-16T13:13:09.163Z,10.70
2022-08-16T13:15:57.204Z,10.43
2022-08-16T13:18:34.449Z,12.40
2022-08-16T13:21:04.945Z,12.23
2022-08-16T13:23:35.676Z,11.32
2022-08-16T13:26:04.704Z,13.20
2022-08-16T13:28:33.239Z,14.65
2022-08-16T13:31:03.313Z,13.00
2022-08-16T13:33:36.942Z,14.00
2022-08-16T13:36:07.875Z,13.90
2022-08-16T13:38:50.346Z,13.48
2022-08-16T13:41:19.675Z,12.90
2022-08-16T13:43:55.119Z,13.03
2022-08-16T13:46:26.360Z,14.50
2022-08-16T13:48:54.383Z,13.90
2022-08-16T13:51:24.187Z,13.20
2022-08-16T13:54:02.848Z,14.33
2022-08-16T13:56:37.432Z,13.70
2022-08-16T13:59:16.506Z,12.50
2022-08-16T14:01:55.739Z,12.23
2022-08-16T14:04:28.866Z,10.53
2022-08-16T14:06:58.756Z,10.93
2022-08-16T14:09:28.731Z,9.90
2022-08-16T14:11:57.617Z,9.57
2022-08-16T14:14:29.207Z,10.20
2022-08-16T14:16:58.809Z,10.52
2022-08-16T14:19:27.773Z,9.40
2022-08-16T14:22:03.915Z,9.18
2022-08-16T14:24:46.954Z,8.77
2022-08-16T14:27:17.889Z,7.93
2022-08-16T14:29:49.206Z,6.30
2022-08-16T14:32:33.582Z,5.80
2022-08-16T14:35:03.995Z,5.17
2022-08-16T14:37:32.677Z,5.70
2022-08-16T14:40:03.257Z,5.75
2022-08-16T14:42:31.824Z,6.22
2022-08-16T14:45:00.491Z,6.50
2022-08-16T14:47:34.390Z,5.43
2022-08-16T14:50:03.289Z,5.20
2022-08-16T14:55:24.040Z,4.55
2022-08-16T14:57:54.503Z,4.47
2022-08-16T15:00:33.167Z,4.70
2022-08-16T15:03:10.505Z,5.07
2022-08-16T15:05:40.310Z,5.30
2022-08-16T15:08:08.722Z,6.10
2022-08-16T15:10:42.722Z,8.80
2022-08-16T15:13:15.343Z,13.88
2022-08-16T15:15:45.222Z,12.75
2022-08-16T15:18:31.530Z,15.50
2022-08-16T15:21:01.737Z,14.30
2022-08-16T15:23:31.571Z,14.00
2022-08-16T15:26:08.012Z,13.93
2022-08-16T15:28:38.094Z,14.43
2022-08-16T15:31:08.141Z,14.70
2022-08-16T15:33:44.338Z,14.60
2022-08-16T15:36:18.097Z,13.45
2022-08-16T15:39:02.105Z,13.60
2022-08-16T15:42:02.747Z,13.25
2022-08-16T15:44:44.120Z,14.30
2022-08-16T15:47:21.224Z,15.10
2022-08-16T15:49:54.615Z,14.95
2022-08-16T15:52:29.292Z,16.02
2022-08-16T15:54:59.325Z,15.75
2022-08-16T15:57:41.359Z,14.50
2022-08-16T16:00:14.828Z,14.48
2022-08-16T16:02:43.740Z,16.90
2022-08-16T16:05:12.263Z,15.30
2022-08-16T16:07:55.899Z,13.97
2022-08-16T16:10:29.906Z,15.00
2022-08-16T16:13:01.772Z,14.80
2022-08-16T16:15:33.425Z,16.58
2022-08-16T16:18:09.383Z,15.30
2022-08-16T16:20:39.765Z,15.00
2022-08-16T16:23:10.532Z,15.90
2022-08-16T16:25:44.018Z,15.40
2022-08-16T16:28:46.084Z,14.40
2022-08-16T16:31:05.733Z,15.80
2022-08-16T16:33:36.888Z,16.70
2022-08-16T16:36:07.309Z,16.50
2022-08-16T16:38:36.339Z,16.42
2022-08-16T16:41:10.266Z,16.60
2022-08-16T16:43:41.582Z,15.68
2022-08-16T16:46:40.469Z,15.38
2022-08-16T16:49:03.885Z,13.77
2022-08-16T16:51:40.688Z,13.98
2022-08-16T16:54:12.840Z,13.93
2022-08-16T16:56:45.936Z,15.00
2022-08-16T16:59:22.462Z,13.70
2022-08-16T17:01:59.328Z,14.50
2022-08-16T17:04:39.692Z,13.88
2022-08-16T17:07:11.165Z,12.80
2022-08-16T17:09:41.047Z,13.65
2022-08-16T17:12:10.023Z,12.90
2022-08-16T17:14:43.925Z,12.67
2022-08-16T17:17:14.694Z,14.32
2022-08-16T17:19:43.993Z,14.73
2022-08-16T17:22:15.510Z,13.88
2022-08-16T17:24:50.506Z,11.63
2022-08-16T17:27:33.192Z,10.70
2022-08-16T17:30:15.797Z,11.20
2022-08-16T17:32:50.298Z,10.00
2022-08-16T17:35:25.281Z,10.20
2022-08-16T17:38:38.705Z,10.18
2022-08-16T17:41:08.168Z,8.90
2022-08-16T17:43:44.381Z,8.80
2022-08-16T17:46:51.375Z,8.93
2022-08-16T17:49:04.739Z,8.55
2022-08-16T17:51:34.206Z,8.80
2022-08-16T17:54:03.476Z,8.93
2022-08-16T17:56:31.518Z,9.45
2022-08-16T17:58:59.440Z,8.68
2022-08-16T18:01:29.832Z,8.57
2022-08-16T18:04:06.907Z,8.27
2022-08-16T18:06:37.991Z,8.07
2022-08-16T18:09:06.477Z,10.63
2022-08-16T18:11:38.293Z,11.30
2022-08-16T18:14:09.845Z,12.60
2022-08-16T18:16:40.375Z,12.90
2022-08-16T18:19:08.343Z,13.20
2022-08-16T18:21:53.780Z,12.35
2022-08-16T18:24:21.817Z,12.90
2022-08-16T18:26:49.730Z,11.27
2022-08-16T18:29:18.068Z,13.55
2022-08-16T18:31:50.649Z,12.50
2022-08-16T18:34:20.543Z,12.48
2022-08-16T18:36:48.529Z,14.02
2022-08-16T18:39:16.456Z,13.85
2022-08-16T18:41:47.096Z,14.40
2022-08-16T18:44:25.441Z,15.02
2022-08-16T18:46:57.240Z,15.35
2022-08-16T18:49:25.453Z,15.10
2022-08-16T18:51:58.049Z,15.50
2022-08-16T18:54:28.061Z,14.93
2022-08-16T18:56:58.124Z,16.30
2022-08-16T18:59:28.594Z,15.77
2022-08-16T19:02:04.403Z,15.82
2022-08-16T19:04:50.563Z,16.83
2022-08-16T19:07:22.404Z,17.80
2022-08-16T19:09:50.452Z,17.42
2022-08-16T19:12:37.909Z,17.67
2022-08-16T19:15:12.110Z,17.85
2022-08-16T19:17:44.040Z,18.90
2022-08-16T19:20:14.028Z,21.77
2022-08-16T19:25:47.593Z,23.42
2022-08-16T19:28:49.392Z,21.42
2022-08-16T19:31:12.288Z,20.95
2022-08-16T19:33:53.278Z,23.08
2022-08-16T19:36:30.954Z,20.80
2022-08-16T19:39:04.631Z,19.25
2022-08-16T19:41:35.036Z,16.15
2022-08-16T19:44:03.235Z,15.25
2022-08-16T19:46:31.849Z,15.73
2022-08-16T19:49:01.386Z,15.15
2022-08-16T19:51:29.715Z,14.57
2022-08-16T19:53:57.652Z,11.93
2022-08-16T19:56:26.834Z,13.15
2022-08-16T20:01:43.719Z,13.60
2022-08-16T20:04:13.883Z,13.25
2022-08-16T20:06:41.965Z,11.55
2022-08-16T20:09:15.391Z,11.75
2022-08-16T20:11:45.312Z,12.68
2022-08-16T20:14:19.281Z,12.65
2022-08-16T20:16:55.365Z,11.50
2022-08-16T20:19:25.086Z,11.20
2022-08-16T20:21:53.040Z,11.88
2022-08-16T20:24:34.034Z,12.93
2022-08-16T20:27:04.522Z,10.90
2022-08-16T20:29:32.513Z,9.82
2022-08-16T20:32:00.445Z,11.32
2022-08-16T20:34:29.761Z,11.60
2022-08-16T20:36:57.725Z,12.80
2022-08-16T20:39:25.775Z,11.65
2022-08-16T20:41:53.801Z,13.47
2022-08-16T20:44:23.046Z,12.00
2022-08-16T20:46:53.591Z,11.43
2022-08-16T20:49:21.663Z,12.57
2022-08-16T20:51:55.936Z,12.77
2022-08-16T20:54:25.538Z,13.10
2022-08-16T20:56:53.697Z,12.45
2022-08-16T20:59:21.733Z,12.50
2022-08-16T21:01:50.618Z,13.20
2022-08-16T21:04:19.836Z,12.90
2022-08-16T21:06:54.209Z,13.43
2022-08-16T21:09:25.578Z,12.90
2022-08-16T21:11:55.112Z,13.93
2022-08-16T21:14:23.329Z,12.68
2022-08-16T21:16:51.363Z,14.98
2022-08-16T21:19:19.418Z,14.85
2022-08-16T21:21:47.493Z,14.50
2022-08-16T21:24:15.974Z,14.43
2022-08-16T21:26:51.040Z,16.90
2022-08-16T21:29:24.914Z,16.58
2022-08-16T21:31:54.321Z,16.13
2022-08-16T21:34:22.394Z,17.00
2022-08-16T21:36:50.287Z,17.15
2022-08-16T21:39:18.278Z,14.98
2022-08-16T21:41:47.537Z,15.70
2022-08-16T21:44:15.797Z,14.75
2022-08-16T21:46:43.813Z,17.23
2022-08-16T21:49:11.886Z,17.38
2022-08-16T21:51:39.900Z,16.20
2022-08-16T21:54:07.786Z,17.80
2022-08-16T21:56:35.807Z,15.85
2022-08-16T21:59:10.666Z,13.85
2022-08-16T22:01:41.288Z,16.93
2022-08-16T22:04:37.269Z,15.68
2022-08-16T22:06:58.130Z,15.40
2022-08-16T22:09:26.484Z,14.63
2022-08-16T22:11:54.413Z,14.00
2022-08-16T22:14:23.720Z,13.95
2022-08-16T22:16:51.905Z,14.07
2022-08-16T22:19:19.905Z,14.70
2022-08-16T22:21:47.803Z,13.07
2022-08-16T22:24:15.798Z,14.27
2022-08-16T22:26:43.904Z,14.05
2022-08-16T22:29:15.003Z,15.32
2022-08-16T22:31:45.144Z,13.82
2022-08-16T22:34:13.927Z,13.65
2022-08-16T22:36:42.338Z,15.93
2022-08-16T22:39:14.032Z,14.25
2022-08-16T22:41:45.333Z,15.82
2022-08-16T22:44:13.958Z,14.32
2022-08-16T22:46:42.685Z,16.90
2022-08-16T22:49:12.878Z,15.35
2022-08-16T22:51:41.292Z,20.40
2022-08-16T22:54:43.775Z,15.32
2022-08-16T22:56:57.677Z,15.70
2022-08-16T22:59:26.001Z,19.30
2022-08-16T23:01:54.599Z,18.00
2022-08-16T23:04:24.937Z,19.92
2022-08-16T23:06:53.220Z,18.70
2022-08-16T23:09:21.668Z,17.27
2022-08-16T23:11:49.606Z,17.83
2022-08-16T23:14:17.646Z,18.33
2022-08-16T23:16:47.220Z,21.88
2022-08-16T23:19:17.423Z,21.48
2022-08-16T23:21:48.898Z,19.60
2022-08-16T23:24:19.289Z,17.70
2022-08-16T23:26:49.326Z,22.33
2022-08-16T23:29:23.929Z,21.63
2022-08-16T23:31:56.924Z,22.10
2022-08-16T23:34:26.783Z,19.70
2022-08-16T23:36:56.455Z,22.05
2022-08-16T23:39:24.959Z,17.83
2022-08-16T23:41:52.987Z,21.42
2022-08-16T23:44:55.121Z,23.33
2022-08-16T23:47:09.538Z,22.08
2022-08-16T23:49:59.138Z,23.50
2022-08-16T23:52:53.803Z,21.65
2022-08-16T23:55:16.365Z,24.67
2022-08-16T23:57:45.900Z,22.85
